createdAt,value
2022-12-12T00:00:10.719Z,3.04
2022-12-12T00:01:10.682Z,3.08
2022-12-12T00:02:10.864Z,3.03
2022-12-12T00:03:10.772Z,3.03
2022-12-12T00:04:10.555Z,3.01
2022-12-12T00:05:10.766Z,3.04
2022-12-12T00:06:10.481Z,3.08
2022-12-12T00:07:10.435Z,3.01
2022-12-12T00:08:10.423Z,3.07
2022-12-12T00:09:10.353Z,3.05
2022-12-12T00:10:10.314Z,3.07
2022-12-12T00:11:10.265Z,2.98
2022-12-12T00:12:10.225Z,2.95
2022-12-12T00:13:10.188Z,3.03
2022-12-12T00:14:10.149Z,3.07
2022-12-12T00:15:10.364Z,3.04
2022-12-12T00:16:10.149Z,3.00
2022-12-12T00:17:10.023Z,3.08
2022-12-12T00:18:09.980Z,3.01
2022-12-12T00:19:09.939Z,3.01
2022-12-12T00:20:09.901Z,3.08
2022-12-12T00:21:09.857Z,3.03
2022-12-12T00:22:09.816Z,3.08
2022-12-12T00:23:09.778Z,2.98
2022-12-12T00:24:09.740Z,3.05
2022-12-12T00:25:09.910Z,3.08
2022-12-12T00:26:09.660Z,3.04
2022-12-12T00:27:09.610Z,3.03
2022-12-12T00:28:09.571Z,3.03
2022-12-12T00:29:09.534Z,3.05
2022-12-12T00:30:09.485Z,3.05
2022-12-12T00:31:09.501Z,3.04
2022-12-12T00:32:09.403Z,3.00
2022-12-12T00:33:09.362Z,3.00
2022-12-12T00:34:09.325Z,2.98
2022-12-12T00:35:09.657Z,2.97
2022-12-12T00:36:09.242Z,3.00
2022-12-12T00:37:09.202Z,3.03
2022-12-12T00:38:09.168Z,3.00
2022-12-12T00:39:12.563Z,3.03
2022-12-12T00:40:09.078Z,2.97
2022-12-12T00:41:09.035Z,3.00
2022-12-12T00:42:09.005Z,3.01
2022-12-12T00:43:08.956Z,2.95
2022-12-12T00:44:08.925Z,3.04
2022-12-12T00:45:08.870Z,3.00
2022-12-12T00:46:08.906Z,3.07
2022-12-12T00:47:08.798Z,3.08
2022-12-12T00:48:08.750Z,3.07
2022-12-12T00:49:08.712Z,3.08
2022-12-12T00:50:08.669Z,3.04
2022-12-12T00:51:08.623Z,3.01
2022-12-12T00:52:08.585Z,3.05
2022-12-12T00:53:08.543Z,3.00
2022-12-12T00:54:08.502Z,3.01
2022-12-12T00:55:08.459Z,3.00
2022-12-12T00:56:08.418Z,3.05
2022-12-12T00:57:08.385Z,3.05
2022-12-12T00:58:08.335Z,3.07
2022-12-12T00:59:08.299Z,3.05
2022-12-12T01:00:08.255Z,3.00
2022-12-12T01:01:08.216Z,3.04
2022-12-12T01:02:08.268Z,2.97
2022-12-12T01:03:08.236Z,3.08
2022-12-12T01:04:08.092Z,3.07
2022-12-12T01:05:08.048Z,3.07
2022-12-12T01:06:08.007Z,3.05
2022-12-12T01:07:07.968Z,3.04
2022-12-12T01:08:07.978Z,3.04
2022-12-12T01:09:07.885Z,2.98
2022-12-12T01:10:07.845Z,3.03
2022-12-12T01:11:07.809Z,3.05
2022-12-12T01:12:07.763Z,3.07
2022-12-12T01:13:07.720Z,2.93
2022-12-12T01:14:07.676Z,3.08
2022-12-12T01:15:07.638Z,3.08
2022-12-12T01:16:07.643Z,3.10
2022-12-12T01:17:07.560Z,3.10
2022-12-12T01:18:07.518Z,3.10
2022-12-12T01:19:07.486Z,3.05
2022-12-12T01:20:07.435Z,3.10
2022-12-12T01:21:07.401Z,3.08
2022-12-12T01:22:07.352Z,3.07
2022-12-12T01:23:07.321Z,3.00
2022-12-12T01:24:07.271Z,3.13
2022-12-12T01:25:07.229Z,3.11
2022-12-12T01:26:07.183Z,3.14
2022-12-12T01:27:07.149Z,3.11
2022-12-12T01:28:07.106Z,3.19
2022-12-12T01:29:07.062Z,3.13
2022-12-12T01:30:07.049Z,3.08
2022-12-12T01:31:07.064Z,3.16
2022-12-12T01:32:06.940Z,3.18
2022-12-12T01:33:06.900Z,3.13
2022-12-12T01:34:06.859Z,3.19
2022-12-12T01:35:06.829Z,3.11
2022-12-12T01:36:06.778Z,3.13
2022-12-12T01:37:06.738Z,3.19
2022-12-12T01:38:06.695Z,3.13
2022-12-12T01:39:06.657Z,3.19
2022-12-12T01:40:06.615Z,3.13
2022-12-12T01:41:06.578Z,3.16
2022-12-12T01:42:06.528Z,3.14
2022-12-12T01:43:06.488Z,3.18
2022-12-12T01:44:06.453Z,3.16
2022-12-12T01:45:06.409Z,3.10
2022-12-12T01:46:06.366Z,3.11
2022-12-12T01:47:06.323Z,3.19
2022-12-12T01:48:06.281Z,3.13
2022-12-12T01:49:06.247Z,3.11
2022-12-12T01:50:06.206Z,3.05
2022-12-12T01:51:06.169Z,3.01
2022-12-12T01:52:06.120Z,3.13
2022-12-12T01:53:06.077Z,3.05
2022-12-12T01:54:06.040Z,3.05
2022-12-12T01:55:05.995Z,3.14
2022-12-12T01:56:05.956Z,3.08
2022-12-12T01:57:05.914Z,3.08
2022-12-12T01:58:05.877Z,3.13
2022-12-12T01:59:05.837Z,3.08
2022-12-12T02:00:05.794Z,3.19
2022-12-12T02:01:05.805Z,3.04
2022-12-12T02:02:05.783Z,3.05
2022-12-12T02:03:05.674Z,3.10
2022-12-12T02:04:05.627Z,3.04
2022-12-12T02:05:05.595Z,3.07
2022-12-12T02:06:05.543Z,3.05
2022-12-12T02:07:05.510Z,3.01
2022-12-12T02:08:05.551Z,3.05
2022-12-12T02:09:05.423Z,3.03
2022-12-12T02:10:05.377Z,3.00
2022-12-12T02:11:05.345Z,3.00
2022-12-12T02:12:05.295Z,2.95
2022-12-12T02:13:05.259Z,2.93
2022-12-12T02:14:05.216Z,2.90
2022-12-12T02:15:05.180Z,2.85
2022-12-12T02:16:05.172Z,2.90
2022-12-12T02:17:05.098Z,2.95
2022-12-12T02:18:08.655Z,2.97
2022-12-12T02:19:05.801Z,2.87
2022-12-12T02:20:04.995Z,2.95
2022-12-12T02:21:04.936Z,2.89
2022-12-12T02:22:04.892Z,2.98
2022-12-12T02:23:04.852Z,2.93
2022-12-12T02:24:04.818Z,2.90
2022-12-12T02:25:04.779Z,2.89
2022-12-12T02:26:04.724Z,2.85
2022-12-12T02:27:04.686Z,2.86
2022-12-12T02:28:04.637Z,2.87
2022-12-12T02:29:04.604Z,2.87
2022-12-12T02:30:04.565Z,2.89
2022-12-12T02:31:04.647Z,2.86
2022-12-12T02:32:04.477Z,2.95
2022-12-12T02:33:04.436Z,2.83
2022-12-12T02:34:04.393Z,2.80
2022-12-12T02:35:04.351Z,2.85
2022-12-12T02:36:04.315Z,2.80
2022-12-12T02:37:04.271Z,2.83
2022-12-12T02:38:04.234Z,2.82
2022-12-12T02:39:04.336Z,2.68
2022-12-12T02:40:04.146Z,2.75
2022-12-12T02:41:04.107Z,2.79
2022-12-12T02:42:04.066Z,2.80
2022-12-12T02:43:04.022Z,2.72
2022-12-12T02:44:03.982Z,2.82
2022-12-12T02:45:03.953Z,2.75
2022-12-12T02:46:03.901Z,2.75
2022-12-12T02:47:03.915Z,2.77
2022-12-12T02:48:03.817Z,2.77
2022-12-12T02:49:03.777Z,2.77
2022-12-12T02:50:03.732Z,2.79
2022-12-12T02:51:03.692Z,2.67
2022-12-12T02:52:03.663Z,2.62
2022-12-12T02:53:03.613Z,2.67
2022-12-12T02:54:03.573Z,2.60
2022-12-12T02:55:03.539Z,2.67
2022-12-12T02:56:03.489Z,2.64
2022-12-12T02:57:03.452Z,2.62
2022-12-12T02:58:03.405Z,2.61
2022-12-12T02:59:03.363Z,2.44
2022-12-12T03:00:03.326Z,2.47
2022-12-12T03:01:03.319Z,2.43
2022-12-12T03:02:03.291Z,2.46
2022-12-12T03:03:03.201Z,2.39
2022-12-12T03:04:03.154Z,2.47
2022-12-12T03:05:03.114Z,2.43
2022-12-12T03:06:03.806Z,2.36
2022-12-12T03:07:03.034Z,2.32
2022-12-12T03:08:03.068Z,2.25
2022-12-12T03:09:02.949Z,2.25
2022-12-12T03:10:02.917Z,2.26
2022-12-12T03:11:02.874Z,2.28
2022-12-12T03:12:02.840Z,2.24
2022-12-12T03:13:02.792Z,2.11
2022-12-12T03:14:02.745Z,2.17
2022-12-12T03:15:02.702Z,2.14
2022-12-12T03:16:02.689Z,2.13
2022-12-12T03:17:02.617Z,2.07
2022-12-12T03:18:02.581Z,2.13
2022-12-12T03:19:02.542Z,2.08
2022-12-12T03:20:02.495Z,2.04
2022-12-12T03:21:02.462Z,2.07
2022-12-12T03:22:02.411Z,1.99
2022-12-12T03:23:02.368Z,2.02
2022-12-12T03:24:02.332Z,1.94
2022-12-12T03:25:02.309Z,2.00
2022-12-12T03:26:02.249Z,1.97
2022-12-12T03:27:02.207Z,1.95
2022-12-12T03:28:02.158Z,2.06
2022-12-12T03:29:02.122Z,1.99
2022-12-12T03:30:02.077Z,2.02
2022-12-12T03:31:02.036Z,1.92
2022-12-12T03:32:02.002Z,2.04
2022-12-12T03:33:01.955Z,1.97
2022-12-12T03:34:01.916Z,1.87
2022-12-12T03:35:01.868Z,1.91
2022-12-12T03:36:01.831Z,1.81
2022-12-12T03:37:01.785Z,1.87
2022-12-12T03:38:01.744Z,1.80
2022-12-12T03:39:01.703Z,1.78
2022-12-12T03:40:01.669Z,1.77
2022-12-12T03:41:01.623Z,1.81
2022-12-12T03:42:01.579Z,1.74
2022-12-12T03:43:01.540Z,1.81
2022-12-12T03:44:01.491Z,1.76
2022-12-12T03:45:01.453Z,1.76
2022-12-12T03:46:01.469Z,1.70
2022-12-12T03:47:01.371Z,1.74
2022-12-12T03:48:01.325Z,1.74
2022-12-12T03:49:01.282Z,1.67
2022-12-12T03:50:01.245Z,1.63
2022-12-12T03:51:01.199Z,1.59
2022-12-12T03:52:01.164Z,1.62
2022-12-12T03:53:01.118Z,1.66
2022-12-12T03:54:01.074Z,1.60
2022-12-12T03:55:01.035Z,1.56
2022-12-12T03:56:00.992Z,1.55
2022-12-12T03:57:00.954Z,1.50
2022-12-12T03:58:00.906Z,1.53
2022-12-12T03:59:00.874Z,1.53
2022-12-12T04:00:00.825Z,1.53
2022-12-12T04:01:00.866Z,1.44
2022-12-12T04:02:00.776Z,1.45
2022-12-12T04:03:00.698Z,1.44
2022-12-12T04:04:00.656Z,1.44
2022-12-12T04:05:00.612Z,1.41
2022-12-12T04:06:00.571Z,1.37
2022-12-12T04:07:00.530Z,1.35
2022-12-12T04:08:00.564Z,1.40
2022-12-12T04:09:00.446Z,1.32
2022-12-12T04:10:00.407Z,1.34
2022-12-12T04:11:00.361Z,1.32
2022-12-12T04:12:00.321Z,1.30
2022-12-12T04:13:00.281Z,1.30
2022-12-12T04:14:00.234Z,1.17
2022-12-12T04:15:00.198Z,1.28
2022-12-12T04:16:00.153Z,1.23
2022-12-12T04:17:00.183Z,1.23
2022-12-12T04:18:00.079Z,1.22
2022-12-12T04:19:00.028Z,1.20
2022-12-12T04:19:59.993Z,1.20
2022-12-12T04:20:59.944Z,1.24
2022-12-12T04:21:59.904Z,1.16
2022-12-12T04:22:59.855Z,1.16
2022-12-12T04:23:59.815Z,1.13
2022-12-12T04:24:59.775Z,1.19
2022-12-12T04:25:59.732Z,1.05
2022-12-12T04:26:59.690Z,1.05
2022-12-12T04:27:59.648Z,1.14
2022-12-12T04:28:59.605Z,1.14
2022-12-12T04:29:59.571Z,1.05
2022-12-12T04:30:59.522Z,1.01
2022-12-12T04:31:59.536Z,1.04
2022-12-12T04:32:59.436Z,1.04
2022-12-12T04:33:59.396Z,1.02
2022-12-12T04:34:59.352Z,1.06
2022-12-12T04:35:59.309Z,0.99
2022-12-12T04:36:59.267Z,1.05
2022-12-12T04:37:59.227Z,0.96
2022-12-12T04:38:59.180Z,1.04
2022-12-12T04:39:59.143Z,1.04
2022-12-12T04:40:59.103Z,1.02
2022-12-12T04:41:59.066Z,1.06
2022-12-12T04:42:59.010Z,1.08
2022-12-12T04:43:58.972Z,0.99
2022-12-12T04:44:58.926Z,1.04
2022-12-12T04:45:58.922Z,1.06
2022-12-12T04:46:58.849Z,1.02
2022-12-12T04:47:58.801Z,1.04
2022-12-12T04:48:58.761Z,1.06
2022-12-12T04:49:58.715Z,1.01
2022-12-12T04:50:58.677Z,1.08
2022-12-12T04:51:58.642Z,1.06
2022-12-12T04:52:58.592Z,1.17
2022-12-12T04:53:58.551Z,1.12
2022-12-12T04:54:58.509Z,1.08
2022-12-12T04:55:58.470Z,0.94
2022-12-12T04:56:58.422Z,1.02
2022-12-12T04:57:58.380Z,1.10
2022-12-12T04:58:58.340Z,1.05
2022-12-12T04:59:58.294Z,1.08
2022-12-12T05:00:58.276Z,1.06
2022-12-12T05:01:58.282Z,1.16
2022-12-12T05:02:58.174Z,0.98
2022-12-12T05:03:58.123Z,1.05
2022-12-12T05:04:58.082Z,1.14
2022-12-12T05:05:58.041Z,1.13
2022-12-12T05:06:58.048Z,1.06
2022-12-12T05:07:57.992Z,1.14
2022-12-12T05:08:57.914Z,0.99
2022-12-12T05:09:57.872Z,1.16
2022-12-12T05:10:57.829Z,0.98
2022-12-12T05:11:57.791Z,0.96
2022-12-12T05:12:57.746Z,1.06
2022-12-12T05:13:57.701Z,1.05
2022-12-12T05:14:57.660Z,1.04
2022-12-12T05:15:57.622Z,1.14
2022-12-12T05:16:57.627Z,1.06
2022-12-12T05:17:57.533Z,1.13
2022-12-12T05:18:57.494Z,1.19
2022-12-12T05:19:57.449Z,1.13
2022-12-12T05:20:57.422Z,1.16
2022-12-12T05:21:57.365Z,1.17
2022-12-12T05:22:57.329Z,1.22
2022-12-12T05:23:57.279Z,1.16
2022-12-12T05:24:57.239Z,1.28
2022-12-12T05:25:57.200Z,1.19
2022-12-12T05:26:57.151Z,1.23
2022-12-12T05:27:57.115Z,1.24
2022-12-12T05:28:59.855Z,1.19
2022-12-12T05:29:57.024Z,1.23
2022-12-12T05:30:57.005Z,1.28
2022-12-12T05:31:56.944Z,1.28
2022-12-12T05:32:56.904Z,1.24
2022-12-12T05:33:56.856Z,1.26
2022-12-12T05:34:56.826Z,1.28
2022-12-12T05:35:56.777Z,1.30
2022-12-12T05:36:56.731Z,1.23
2022-12-12T05:37:56.690Z,1.24
2022-12-12T05:38:56.651Z,1.28
2022-12-12T05:39:56.605Z,1.30
2022-12-12T05:40:56.565Z,1.23
2022-12-12T05:41:56.521Z,1.23
2022-12-12T05:42:56.476Z,1.31
2022-12-12T05:43:56.438Z,1.32
2022-12-12T05:44:56.395Z,1.35
2022-12-12T05:45:56.428Z,1.30
2022-12-12T05:46:56.309Z,1.26
2022-12-12T05:47:56.269Z,1.31
2022-12-12T05:48:56.230Z,1.35
2022-12-12T05:49:56.188Z,1.34
2022-12-12T05:50:56.146Z,1.35
2022-12-12T05:51:56.101Z,1.38
2022-12-12T05:52:56.056Z,1.37
2022-12-12T05:53:56.016Z,1.37
2022-12-12T05:54:55.978Z,1.32
2022-12-12T05:55:55.935Z,1.34
2022-12-12T05:56:55.887Z,1.37
2022-12-12T05:57:55.846Z,1.34
2022-12-12T05:58:55.804Z,1.34
2022-12-12T05:59:55.767Z,1.31
2022-12-12T06:01:01.538Z,1.32
2022-12-12T06:01:55.690Z,1.35
2022-12-12T06:02:55.661Z,1.30
2022-12-12T06:03:55.630Z,1.35
2022-12-12T06:04:55.551Z,1.41
2022-12-12T06:05:55.509Z,1.49
2022-12-12T06:06:55.475Z,1.44
2022-12-12T06:07:55.461Z,1.41
2022-12-12T06:08:55.392Z,1.49
2022-12-12T06:09:55.341Z,1.44
2022-12-12T06:10:55.303Z,1.45
2022-12-12T06:11:55.256Z,1.41
2022-12-12T06:12:55.226Z,1.41
2022-12-12T06:13:55.177Z,1.30
2022-12-12T06:14:55.133Z,1.38
2022-12-12T06:15:55.104Z,1.35
2022-12-12T06:16:55.047Z,1.35
2022-12-12T06:17:55.003Z,1.37
2022-12-12T06:18:54.962Z,1.40
2022-12-12T06:19:54.926Z,1.37
2022-12-12T06:20:54.883Z,1.32
2022-12-12T06:21:54.838Z,1.40
2022-12-12T06:22:54.800Z,1.41
2022-12-12T06:23:54.757Z,1.35
2022-12-12T06:24:54.709Z,1.35
2022-12-12T06:25:54.668Z,1.37
2022-12-12T06:26:54.627Z,1.42
2022-12-12T06:27:54.585Z,1.42
2022-12-12T06:28:54.539Z,1.35
2022-12-12T06:29:54.513Z,1.37
2022-12-12T06:30:54.539Z,1.41
2022-12-12T06:31:54.418Z,1.40
2022-12-12T06:32:54.378Z,1.38
2022-12-12T06:33:54.338Z,1.41
2022-12-12T06:34:54.291Z,1.35
2022-12-12T06:35:54.249Z,1.42
2022-12-12T06:36:54.212Z,1.38
2022-12-12T06:37:54.164Z,1.37
2022-12-12T06:38:54.129Z,1.35
2022-12-12T06:39:54.093Z,1.48
2022-12-12T06:40:54.044Z,1.34
2022-12-12T06:41:53.998Z,1.37
2022-12-12T06:42:53.952Z,1.34
2022-12-12T06:43:53.917Z,1.37
2022-12-12T06:44:53.868Z,1.37
2022-12-12T06:45:53.881Z,1.37
2022-12-12T06:46:53.786Z,1.35
2022-12-12T06:47:53.746Z,1.32
2022-12-12T06:48:53.704Z,1.26
2022-12-12T06:49:53.662Z,1.35
2022-12-12T06:50:53.621Z,1.34
2022-12-12T06:51:53.575Z,1.31
2022-12-12T06:52:53.530Z,1.34
2022-12-12T06:53:53.494Z,1.32
2022-12-12T06:54:53.540Z,1.40
2022-12-12T06:55:53.415Z,1.37
2022-12-12T06:56:53.373Z,1.37
2022-12-12T06:57:53.322Z,1.35
2022-12-12T06:58:53.279Z,1.32
2022-12-12T06:59:53.249Z,1.32
2022-12-12T07:00:53.201Z,1.40
2022-12-12T07:01:53.200Z,1.31
2022-12-12T07:02:53.143Z,1.35
2022-12-12T07:03:53.075Z,1.34
2022-12-12T07:04:53.029Z,1.49
2022-12-12T07:05:52.992Z,1.41
2022-12-12T07:06:52.941Z,1.35
2022-12-12T07:07:52.953Z,1.44
2022-12-12T07:08:52.861Z,1.35
2022-12-12T07:09:52.818Z,1.38
2022-12-12T07:10:52.820Z,1.34
2022-12-12T07:11:52.734Z,1.38
2022-12-12T07:12:57.312Z,1.32
2022-12-12T07:13:52.658Z,1.38
2022-12-12T07:14:52.609Z,1.34
2022-12-12T07:15:52.623Z,1.37
2022-12-12T07:16:52.523Z,1.35
2022-12-12T07:17:52.479Z,1.28
2022-12-12T07:18:52.441Z,1.30
2022-12-12T07:19:52.402Z,1.32
2022-12-12T07:20:52.355Z,1.40
2022-12-12T07:21:52.315Z,1.34
2022-12-12T07:22:52.274Z,1.26
2022-12-12T07:23:52.230Z,1.24
2022-12-12T07:24:52.189Z,1.22
2022-12-12T07:25:52.142Z,1.30
2022-12-12T07:26:52.108Z,1.23
2022-12-12T07:27:52.061Z,1.20
2022-12-12T07:28:52.020Z,1.28
2022-12-12T07:29:51.982Z,1.30
2022-12-12T07:30:51.967Z,1.31
2022-12-12T07:31:51.892Z,1.22
2022-12-12T07:32:51.852Z,1.28
2022-12-12T07:33:51.806Z,1.20
2022-12-12T07:34:51.767Z,1.22
2022-12-12T07:35:51.720Z,1.28
2022-12-12T07:36:51.682Z,1.22
2022-12-12T07:37:51.640Z,1.10
2022-12-12T07:38:51.602Z,1.23
2022-12-12T07:39:51.556Z,1.16
2022-12-12T07:40:51.520Z,1.16
2022-12-12T07:41:51.475Z,1.17
2022-12-12T07:42:51.469Z,1.14
2022-12-12T07:43:51.386Z,1.12
2022-12-12T07:44:51.348Z,1.01
2022-12-12T07:45:51.305Z,1.10
2022-12-12T07:46:51.285Z,1.05
2022-12-12T07:47:51.223Z,1.08
2022-12-12T07:48:51.179Z,1.05
2022-12-12T07:49:51.139Z,1.06
2022-12-12T07:50:51.093Z,1.05
2022-12-12T07:51:51.050Z,1.08
2022-12-12T07:52:51.009Z,1.05
2022-12-12T07:53:50.962Z,1.13
2022-12-12T07:54:50.925Z,1.08
2022-12-12T07:55:50.879Z,1.05
2022-12-12T07:56:50.838Z,1.10
2022-12-12T07:57:50.802Z,1.17
2022-12-12T07:58:50.761Z,1.20
2022-12-12T07:59:50.720Z,1.22
2022-12-12T08:00:50.671Z,1.19
2022-12-12T08:01:50.649Z,1.23
2022-12-12T08:02:50.583Z,1.22
2022-12-12T08:03:50.547Z,1.26
2022-12-12T08:04:50.568Z,1.23
2022-12-12T08:05:50.456Z,1.22
2022-12-12T08:06:55.665Z,1.23
2022-12-12T08:07:50.422Z,1.22
2022-12-12T08:08:50.335Z,1.30
2022-12-12T08:09:50.287Z,1.31
2022-12-12T08:10:50.264Z,1.28
2022-12-12T08:11:50.209Z,1.24
2022-12-12T08:12:50.168Z,1.34
2022-12-12T08:13:50.125Z,1.26
2022-12-12T08:14:50.083Z,1.30
2022-12-12T08:15:50.095Z,1.20
2022-12-12T08:16:49.998Z,1.30
2022-12-12T08:17:49.957Z,1.30
2022-12-12T08:18:49.914Z,1.24
2022-12-12T08:19:49.867Z,1.23
2022-12-12T08:20:49.840Z,1.23
2022-12-12T08:21:49.783Z,1.23
2022-12-12T08:22:49.760Z,1.26
2022-12-12T08:23:49.699Z,1.26
2022-12-12T08:24:49.670Z,1.22
2022-12-12T08:25:49.617Z,1.24
2022-12-12T08:26:49.571Z,1.37
2022-12-12T08:27:49.531Z,1.31
2022-12-12T08:28:49.488Z,1.31
2022-12-12T08:29:49.459Z,1.35
2022-12-12T08:30:49.418Z,1.35
2022-12-12T08:31:49.385Z,1.32
2022-12-12T08:32:49.322Z,1.35
2022-12-12T08:33:49.275Z,1.31
2022-12-12T08:34:49.237Z,1.31
2022-12-12T08:35:49.194Z,1.32
2022-12-12T08:36:49.157Z,1.34
2022-12-12T08:37:49.107Z,1.32
2022-12-12T08:38:49.069Z,1.38
2022-12-12T08:39:52.798Z,1.37
2022-12-12T08:40:48.986Z,1.44
2022-12-12T08:41:48.945Z,1.37
2022-12-12T08:42:48.907Z,1.40
2022-12-12T08:43:48.859Z,1.40
2022-12-12T08:44:48.811Z,1.48
2022-12-12T08:45:48.772Z,1.49
2022-12-12T08:46:48.804Z,1.38
2022-12-12T08:47:48.690Z,1.42
2022-12-12T08:48:48.643Z,1.50
2022-12-12T08:49:48.605Z,1.50
2022-12-12T08:50:48.563Z,1.45
2022-12-12T08:51:48.520Z,1.48
2022-12-12T08:52:48.480Z,1.44
2022-12-12T08:53:48.436Z,1.50
2022-12-12T08:54:48.398Z,1.52
2022-12-12T08:55:48.350Z,1.53
2022-12-12T08:56:48.319Z,1.45
2022-12-12T08:57:48.269Z,1.45
2022-12-12T08:58:48.230Z,1.45
2022-12-12T08:59:48.185Z,1.48
2022-12-12T09:00:48.145Z,1.50
2022-12-12T09:01:48.265Z,1.50
2022-12-12T09:02:48.246Z,1.50
2022-12-12T09:03:48.026Z,1.50
2022-12-12T09:04:47.981Z,1.53
2022-12-12T09:05:47.932Z,1.50
2022-12-12T09:06:47.891Z,1.50
2022-12-12T09:07:47.917Z,1.55
2022-12-12T09:08:47.805Z,1.59
2022-12-12T09:09:47.763Z,1.62
2022-12-12T09:10:47.722Z,1.60
2022-12-12T09:11:47.703Z,1.55
2022-12-12T09:12:47.641Z,1.60
2022-12-12T09:13:47.601Z,1.62
2022-12-12T09:14:47.559Z,1.59
2022-12-12T09:15:47.554Z,1.62
2022-12-12T09:16:47.473Z,1.66
2022-12-12T09:17:47.427Z,1.68
2022-12-12T09:18:49.438Z,1.62
2022-12-12T09:19:47.345Z,1.63
2022-12-12T09:20:47.308Z,1.62
2022-12-12T09:21:47.260Z,1.55
2022-12-12T09:22:47.229Z,1.66
2022-12-12T09:23:47.178Z,1.60
2022-12-12T09:24:47.140Z,1.62
2022-12-12T09:25:47.095Z,1.70
2022-12-12T09:26:47.071Z,1.71
2022-12-12T09:27:47.013Z,1.76
2022-12-12T09:28:46.971Z,1.78
2022-12-12T09:29:46.923Z,1.68
2022-12-12T09:30:46.884Z,1.78
2022-12-12T09:31:46.938Z,1.81
2022-12-12T09:32:46.806Z,1.78
2022-12-12T09:33:46.754Z,1.88
2022-12-12T09:34:46.725Z,1.87
2022-12-12T09:35:46.673Z,1.85
2022-12-12T09:36:46.630Z,1.87
2022-12-12T09:37:46.609Z,1.99
2022-12-12T09:38:46.553Z,1.97
2022-12-12T09:39:46.507Z,1.99
2022-12-12T09:40:46.464Z,1.91
2022-12-12T09:41:46.422Z,1.89
2022-12-12T09:42:46.397Z,2.00
2022-12-12T09:43:46.337Z,1.99
2022-12-12T09:44:46.299Z,2.02
2022-12-12T09:45:46.293Z,2.04
2022-12-12T09:46:46.214Z,2.11
2022-12-12T09:47:46.172Z,2.18
2022-12-12T09:48:46.129Z,2.25
2022-12-12T09:49:46.085Z,2.28
2022-12-12T09:50:46.058Z,2.28
2022-12-12T09:51:46.006Z,2.42
2022-12-12T09:52:45.978Z,2.32
2022-12-12T09:53:45.920Z,2.44
2022-12-12T09:54:45.880Z,2.39
2022-12-12T09:55:45.850Z,2.51
2022-12-12T09:56:45.799Z,2.56
2022-12-12T09:57:46.414Z,2.65
2022-12-12T09:58:50.199Z,2.60
2022-12-12T09:59:45.720Z,2.65
2022-12-12T10:00:45.700Z,2.72
2022-12-12T10:01:45.645Z,2.77
2022-12-12T10:02:45.554Z,2.83
2022-12-12T10:03:45.511Z,2.87
2022-12-12T10:04:50.760Z,2.86
2022-12-12T10:05:45.430Z,3.00
2022-12-12T10:06:45.429Z,3.04
2022-12-12T10:07:45.350Z,3.05
2022-12-12T10:08:45.306Z,3.05
2022-12-12T10:09:45.266Z,3.23
2022-12-12T10:10:45.222Z,3.26
2022-12-12T10:11:45.178Z,3.40
2022-12-12T10:12:45.137Z,3.32
2022-12-12T10:13:45.094Z,3.37
2022-12-12T10:14:45.055Z,3.44
2022-12-12T10:15:45.011Z,3.50
2022-12-12T10:16:45.009Z,3.47
2022-12-12T10:17:44.941Z,3.62
2022-12-12T10:18:44.891Z,3.59
2022-12-12T10:19:44.848Z,3.66
2022-12-12T10:20:44.810Z,3.73
2022-12-12T10:21:44.771Z,3.88
2022-12-12T10:22:44.856Z,3.87
2022-12-12T10:23:44.686Z,3.99
2022-12-12T10:24:44.647Z,4.02
2022-12-12T10:25:44.601Z,4.10
2022-12-12T10:26:44.564Z,4.14
2022-12-12T10:27:44.526Z,4.13
2022-12-12T10:28:44.485Z,4.14
2022-12-12T10:29:44.444Z,4.19
2022-12-12T10:30:44.399Z,4.16
2022-12-12T10:31:44.431Z,4.22
2022-12-12T10:32:44.322Z,4.24
2022-12-12T10:33:44.289Z,4.24
2022-12-12T10:34:44.276Z,4.40
2022-12-12T10:35:44.199Z,4.48
2022-12-12T10:36:44.160Z,4.59
2022-12-12T10:37:44.117Z,4.62
2022-12-12T10:38:44.086Z,4.71
2022-12-12T10:39:44.377Z,4.90
2022-12-12T10:40:44.003Z,4.97
2022-12-12T10:41:43.954Z,4.93
2022-12-12T10:42:43.917Z,4.94
2022-12-12T10:43:43.879Z,5.02
2022-12-12T10:44:47.176Z,5.08
2022-12-12T10:45:43.850Z,5.25
2022-12-12T10:46:43.800Z,5.21
2022-12-12T10:47:43.715Z,5.29
2022-12-12T10:48:43.684Z,5.30
2022-12-12T10:49:43.642Z,5.29
2022-12-12T10:50:43.608Z,5.47
2022-12-12T10:51:43.563Z,5.50
2022-12-12T10:52:43.526Z,5.44
2022-12-12T10:53:43.481Z,5.51
2022-12-12T10:54:43.451Z,5.57
2022-12-12T10:55:43.413Z,5.71
2022-12-12T10:56:43.366Z,5.68
2022-12-12T10:57:43.326Z,5.76
2022-12-12T10:58:43.288Z,5.87
2022-12-12T10:59:43.246Z,5.91
2022-12-12T11:00:43.272Z,5.94
2022-12-12T11:02:09.231Z,6.02
2022-12-12T11:02:43.351Z,6.17
2022-12-12T11:03:43.151Z,6.16
2022-12-12T11:04:43.053Z,6.24
2022-12-12T11:05:43.024Z,6.46
2022-12-12T11:06:42.972Z,6.33
2022-12-12T11:07:42.938Z,6.57
2022-12-12T11:08:42.898Z,6.52
2022-12-12T11:09:42.853Z,6.63
2022-12-12T11:10:42.821Z,6.75
2022-12-12T11:11:42.782Z,6.78
2022-12-12T11:12:42.739Z,6.85
2022-12-12T11:13:42.722Z,6.89
2022-12-12T11:14:42.662Z,6.82
2022-12-12T11:15:42.619Z,6.85
2022-12-12T11:16:42.663Z,6.87
2022-12-12T11:17:42.545Z,6.84
2022-12-12T11:18:42.515Z,6.88
2022-12-12T11:19:42.469Z,7.00
2022-12-12T11:20:42.434Z,7.02
2022-12-12T11:21:42.395Z,7.06
2022-12-12T11:22:42.350Z,7.14
2022-12-12T11:23:42.313Z,7.05
2022-12-12T11:24:42.275Z,7.02
2022-12-12T11:25:42.229Z,7.05
2022-12-12T11:26:42.223Z,7.13
2022-12-12T11:27:42.153Z,7.10
2022-12-12T11:28:42.119Z,7.21
2022-12-12T11:29:42.085Z,7.17
2022-12-12T11:30:42.036Z,7.33
2022-12-12T11:31:42.036Z,7.36
2022-12-12T11:32:41.966Z,7.48
2022-12-12T11:33:41.926Z,7.33
2022-12-12T11:34:41.893Z,7.35
2022-12-12T11:35:47.277Z,7.43
2022-12-12T11:36:41.814Z,7.45
2022-12-12T11:37:41.777Z,7.54
2022-12-12T11:38:41.738Z,7.56
2022-12-12T11:39:41.695Z,7.58
2022-12-12T11:40:41.664Z,7.73
2022-12-12T11:41:41.616Z,7.75
2022-12-12T11:42:41.593Z,7.69
2022-12-12T11:43:41.544Z,7.75
2022-12-12T11:44:41.503Z,7.72
2022-12-12T11:45:41.490Z,7.79
2022-12-12T11:46:41.427Z,7.85
2022-12-12T11:47:41.420Z,7.95
2022-12-12T11:48:41.353Z,7.88
2022-12-12T11:49:41.311Z,7.91
2022-12-12T11:50:41.275Z,8.03
2022-12-12T11:51:41.237Z,7.95
2022-12-12T11:52:41.213Z,7.97
2022-12-12T11:53:41.162Z,8.03
2022-12-12T11:54:41.122Z,8.08
2022-12-12T11:55:41.086Z,8.03
2022-12-12T11:56:41.047Z,8.13
2022-12-12T11:57:41.002Z,8.12
2022-12-12T11:58:40.970Z,8.01
2022-12-12T11:59:40.930Z,8.01
2022-12-12T12:00:40.896Z,8.06
2022-12-12T12:01:40.850Z,8.19
2022-12-12T12:02:40.817Z,8.23
2022-12-12T12:03:40.845Z,8.31
2022-12-12T12:04:40.780Z,8.16
2022-12-12T12:05:40.708Z,8.24
2022-12-12T12:06:40.664Z,8.20
2022-12-12T12:07:40.622Z,8.24
2022-12-12T12:08:40.583Z,8.08
2022-12-12T12:09:40.542Z,8.27
2022-12-12T12:10:40.507Z,8.20
2022-12-12T12:11:40.467Z,8.19
2022-12-12T12:12:40.435Z,8.36
2022-12-12T12:13:40.398Z,8.33
2022-12-12T12:14:40.392Z,8.33
2022-12-12T12:15:40.322Z,8.44
2022-12-12T12:16:40.298Z,8.37
2022-12-12T12:17:40.245Z,8.44
2022-12-12T12:18:40.208Z,8.45
2022-12-12T12:19:40.170Z,8.61
2022-12-12T12:20:40.128Z,8.61
2022-12-12T12:21:40.092Z,8.58
2022-12-12T12:22:40.051Z,8.60
2022-12-12T12:23:42.586Z,8.53
2022-12-12T12:24:39.978Z,8.53
2022-12-12T12:25:39.940Z,8.46
2022-12-12T12:26:39.903Z,8.51
2022-12-12T12:27:39.864Z,8.42
2022-12-12T12:28:39.825Z,8.53
2022-12-12T12:29:39.786Z,8.53
2022-12-12T12:30:39.781Z,8.53
2022-12-12T12:31:39.713Z,8.53
2022-12-12T12:32:39.672Z,8.70
2022-12-12T12:33:39.633Z,8.66
2022-12-12T12:34:39.600Z,8.60
2022-12-12T12:35:39.563Z,8.56
2022-12-12T12:36:39.524Z,8.52
2022-12-12T12:37:39.489Z,8.56
2022-12-12T12:38:39.445Z,8.66
2022-12-12T12:39:39.412Z,8.55
2022-12-12T12:40:39.370Z,8.55
2022-12-12T12:41:39.335Z,8.52
2022-12-12T12:42:39.295Z,8.61
2022-12-12T12:43:39.260Z,8.46
2022-12-12T12:44:39.237Z,8.61
2022-12-12T12:45:39.180Z,8.64
2022-12-12T12:46:39.150Z,8.58
2022-12-12T12:47:39.110Z,8.53
2022-12-12T12:48:39.066Z,8.58
2022-12-12T12:49:39.030Z,8.69
2022-12-12T12:50:38.995Z,8.70
2022-12-12T12:51:38.952Z,8.66
2022-12-12T12:52:38.924Z,8.79
2022-12-12T12:53:38.876Z,8.78
2022-12-12T12:54:38.838Z,8.78
2022-12-12T12:55:38.801Z,8.82
2022-12-12T12:56:43.569Z,8.84
2022-12-12T12:57:38.730Z,8.91
2022-12-12T12:58:38.689Z,8.94
2022-12-12T12:59:38.651Z,9.03
2022-12-12T13:00:38.610Z,8.99
2022-12-12T13:01:38.636Z,9.06
2022-12-12T13:02:38.626Z,9.03
2022-12-12T13:03:38.530Z,9.06
2022-12-12T13:04:38.464Z,9.19
2022-12-12T13:05:38.424Z,9.13
2022-12-12T13:06:38.384Z,9.16
2022-12-12T13:07:40.912Z,9.31
2022-12-12T13:08:38.313Z,9.29
2022-12-12T13:09:38.272Z,9.37
2022-12-12T13:10:38.233Z,9.31
2022-12-12T13:11:38.198Z,9.31
2022-12-12T13:12:38.157Z,9.29
2022-12-12T13:13:38.121Z,9.28
2022-12-12T13:14:38.087Z,9.29
2022-12-12T13:15:38.122Z,9.29
2022-12-12T13:16:38.013Z,9.32
2022-12-12T13:17:37.977Z,9.23